createdAt,value
2018-06-19T00:02:40.377Z,5.17
2018-06-19T00:07:14.619Z,6.62
2018-06-19T00:11:49.006Z,4.72
2018-06-19T00:16:23.449Z,4.25
2018-06-19T00:21:01.204Z,3.83
2018-06-19T00:25:35.537Z,4.50
2018-06-19T00:30:10.009Z,4.28
2018-06-19T00:34:44.421Z,4.15
2018-06-19T00:39:18.649Z,5.15
2018-06-19T00:43:53.004Z,5.28
2018-06-19T00:48:27.430Z,4.58
2018-06-19T00:53:01.811Z,4.22
2018-06-19T00:57:36.333Z,4.20
2018-06-19T01:02:10.624Z,4.33
2018-06-19T01:06:45.552Z,3.98
2018-06-19T01:11:20.020Z,4.33
2018-06-19T01:15:54.426Z,4.40
2018-06-19T01:20:28.885Z,4.53
2018-06-19T01:25:03.305Z,5.10
2018-06-19T01:29:37.617Z,4.15
2018-06-19T01:34:11.930Z,3.87
2018-06-19T01:38:47.260Z,4.10
2018-06-19T01:43:22.027Z,4.67
2018-06-19T01:47:56.414Z,4.45
2018-06-19T01:52:30.657Z,6.70
2018-06-19T01:57:05.381Z,5.20
2018-06-19T02:01:40.095Z,4.37
2018-06-19T02:06:14.585Z,5.78
2018-06-19T02:10:48.786Z,5.20
2018-06-19T02:15:23.127Z,4.58
2018-06-19T02:19:57.305Z,5.03
2018-06-19T02:24:31.684Z,5.15
2018-06-19T02:29:06.020Z,4.17
2018-06-19T02:33:40.557Z,4.28
2018-06-19T02:38:14.821Z,5.95
2018-06-19T02:42:49.265Z,4.40
2018-06-19T02:47:24.038Z,5.90
2018-06-19T02:51:58.529Z,7.42
2018-06-19T02:56:33.065Z,6.80
2018-06-19T03:01:07.321Z,4.40
2018-06-19T03:05:41.853Z,4.37
2018-06-19T03:10:16.259Z,5.03
2018-06-19T03:14:50.773Z,5.12
2018-06-19T03:19:25.645Z,4.50
2018-06-19T03:23:59.926Z,4.40
2018-06-19T03:28:34.495Z,5.97
2018-06-19T03:33:10.042Z,4.72
2018-06-19T03:37:45.973Z,4.20
2018-06-19T03:42:20.309Z,5.62
2018-06-19T03:46:54.806Z,5.20
2018-06-19T03:51:29.769Z,4.80
2018-06-19T03:56:04.180Z,4.28
2018-06-19T04:00:38.701Z,5.42
2018-06-19T04:05:13.033Z,5.90
2018-06-19T04:09:47.505Z,4.55
2018-06-19T04:14:21.813Z,4.85
2018-06-19T04:18:56.157Z,4.20
2018-06-19T04:23:30.825Z,4.90
2018-06-19T04:28:06.479Z,4.55
2018-06-19T04:32:40.891Z,4.05
2018-06-19T04:37:15.150Z,5.37
2018-06-19T04:41:49.665Z,4.87
2018-06-19T04:46:24.185Z,5.25
2018-06-19T04:50:58.634Z,7.10
2018-06-19T04:55:33.053Z,5.58
2018-06-19T05:00:07.425Z,4.92
2018-06-19T05:04:41.957Z,5.90
2018-06-19T05:09:16.325Z,4.80
2018-06-19T05:13:50.552Z,6.42
2018-06-19T05:18:24.785Z,6.17
2018-06-19T05:22:59.273Z,6.97
2018-06-19T05:27:33.491Z,9.98
2018-06-19T05:32:07.925Z,5.60
2018-06-19T05:36:42.388Z,6.22
2018-06-19T05:41:16.610Z,5.58
2018-06-19T05:45:51.065Z,5.60
2018-06-19T05:50:25.485Z,7.08
2018-06-19T05:54:59.909Z,7.03
2018-06-19T05:59:34.225Z,7.78
2018-06-19T06:04:08.978Z,6.00
2018-06-19T06:08:43.466Z,6.67
2018-06-19T06:13:17.786Z,6.03
2018-06-19T06:17:52.177Z,5.42
2018-06-19T06:22:26.570Z,9.58
2018-06-19T06:27:00.990Z,6.78
2018-06-19T06:31:35.423Z,8.78
2018-06-19T06:36:10.070Z,7.58
2018-06-19T06:40:45.054Z,8.83
2018-06-19T06:45:19.449Z,8.08
2018-06-19T06:49:53.954Z,7.67
2018-06-19T06:54:28.895Z,8.70
2018-06-19T06:59:03.261Z,9.35
2018-06-19T07:03:37.757Z,6.08
2018-06-19T07:08:12.317Z,6.55
2018-06-19T07:12:46.842Z,6.33
2018-06-19T07:17:21.087Z,8.28
2018-06-19T07:21:55.426Z,7.00
2018-06-19T07:26:29.762Z,7.15
2018-06-19T07:31:04.098Z,7.30
2018-06-19T07:35:38.353Z,8.95
2018-06-19T07:40:12.989Z,8.28
2018-06-19T07:44:47.244Z,9.38
2018-06-19T07:49:22.490Z,8.28
2018-06-19T07:53:56.970Z,9.65
2018-06-19T07:58:31.564Z,8.00
2018-06-19T08:03:06.010Z,8.60
2018-06-19T08:07:40.471Z,8.80
2018-06-19T08:12:15.034Z,7.85
2018-06-19T08:16:49.473Z,6.60
2018-06-19T08:21:24.006Z,7.12
2018-06-19T08:25:58.542Z,5.35
2018-06-19T08:30:33.166Z,6.85
2018-06-19T08:35:07.865Z,7.42
2018-06-19T08:39:42.249Z,8.10
2018-06-19T08:44:16.765Z,4.80
2018-06-19T08:48:51.162Z,7.95
2018-06-19T08:53:26.108Z,5.47
2018-06-19T08:58:00.675Z,5.05
2018-06-19T09:02:35.256Z,6.10
2018-06-19T09:07:10.007Z,7.47
2018-06-19T09:11:44.446Z,5.87
2018-06-19T09:16:19.096Z,6.22
2018-06-19T09:20:54.230Z,8.23
2018-06-19T09:25:28.533Z,4.83
2018-06-19T09:30:02.856Z,3.70
2018-06-19T09:34:37.369Z,4.83
2018-06-19T09:39:13.565Z,3.83
2018-06-19T09:43:48.010Z,5.83
2018-06-19T09:48:22.438Z,6.03
2018-06-19T09:52:57.222Z,5.85
2018-06-19T09:57:31.853Z,2.98
2018-06-19T10:02:06.729Z,2.92
2018-06-19T10:06:41.058Z,4.17
2018-06-19T10:11:15.605Z,2.22
2018-06-19T10:15:50.063Z,4.17
2018-06-19T10:20:24.625Z,2.12
2018-06-19T10:24:59.009Z,3.30
2018-06-19T10:29:33.429Z,2.52
2018-06-19T10:34:07.828Z,2.30
2018-06-19T10:38:42.496Z,2.58
2018-06-19T10:43:17.033Z,2.47
2018-06-19T10:47:51.461Z,2.17
2018-06-19T10:52:25.718Z,2.72
2018-06-19T10:57:00.217Z,1.70
2018-06-19T11:01:34.658Z,2.87
2018-06-19T11:06:09.298Z,2.47
2018-06-19T11:10:43.674Z,1.55
2018-06-19T11:15:18.386Z,1.17
2018-06-19T11:19:53.365Z,1.70
2018-06-19T11:24:27.553Z,1.47
2018-06-19T11:29:02.040Z,3.55
2018-06-19T11:33:36.469Z,1.90
2018-06-19T11:38:11.477Z,4.70
2018-06-19T11:42:45.982Z,1.65
2018-06-19T11:47:20.198Z,1.95
2018-06-19T11:51:54.582Z,4.15
2018-06-19T11:56:28.900Z,1.95
2018-06-19T12:01:03.185Z,2.30
2018-06-19T12:05:38.747Z,1.40
2018-06-19T12:10:13.453Z,1.87
2018-06-19T12:14:48.609Z,2.75
2018-06-19T12:19:22.917Z,1.42
2018-06-19T12:23:57.383Z,1.35
2018-06-19T12:28:31.893Z,1.30
2018-06-19T12:33:06.889Z,2.02
2018-06-19T12:37:41.382Z,2.35
2018-06-19T12:42:16.129Z,2.62
2018-06-19T12:46:50.460Z,2.02
2018-06-19T12:51:47.751Z,1.60
2018-06-19T12:56:22.070Z,1.75
2018-06-19T13:00:56.525Z,1.62
2018-06-19T13:05:42.230Z,2.27
2018-06-19T13:10:16.619Z,4.95
2018-06-19T13:14:50.962Z,1.80
2018-06-19T13:19:36.565Z,2.65
2018-06-19T13:24:11.049Z,2.15
2018-06-19T13:29:55.730Z,2.42
2018-06-19T13:34:30.417Z,3.83
2018-06-19T13:39:05.506Z,3.08
2018-06-19T13:43:50.950Z,2.62
2018-06-19T13:48:25.386Z,2.55
2018-06-19T13:52:59.661Z,3.33
2018-06-19T13:57:46.384Z,5.17
2018-06-19T14:02:21.720Z,7.08
2018-06-19T14:06:57.401Z,4.95
2018-06-19T14:11:43.016Z,3.30
2018-06-19T14:16:18.223Z,4.42
2018-06-19T14:20:52.305Z,4.22
2018-06-19T14:25:27.237Z,3.80
2018-06-19T14:30:01.874Z,6.03
2018-06-19T14:34:36.496Z,4.53
2018-06-19T14:39:11.530Z,4.20
2018-06-19T14:43:45.965Z,4.40
2018-06-19T14:48:20.453Z,4.83
2018-06-19T14:52:54.877Z,6.28
2018-06-19T14:57:29.355Z,5.72
2018-06-19T15:02:03.970Z,5.28
2018-06-19T15:06:38.697Z,4.80
2018-06-19T15:11:12.998Z,5.92
2018-06-19T15:15:48.239Z,5.00
2018-06-19T15:20:22.693Z,4.75
2018-06-19T15:24:58.277Z,5.08
2018-06-19T15:29:32.720Z,4.35
2018-06-19T15:34:07.678Z,5.28
2018-06-19T15:38:42.082Z,5.60
2018-06-19T15:43:16.278Z,4.30
2018-06-19T15:47:50.620Z,5.00
2018-06-19T15:52:25.117Z,5.10
2018-06-19T15:56:59.605Z,3.92
2018-06-19T16:01:34.053Z,3.27
2018-06-19T16:06:08.486Z,6.75
2018-06-19T16:10:42.713Z,5.10
2018-06-19T16:15:17.017Z,2.77
2018-06-19T16:19:51.401Z,3.58
2018-06-19T16:24:25.933Z,3.40
2018-06-19T16:29:00.281Z,3.58
2018-06-19T16:33:34.641Z,5.00
2018-06-19T16:38:08.848Z,3.15
2018-06-19T16:42:43.066Z,4.50
2018-06-19T16:47:17.533Z,3.50
2018-06-19T16:51:52.672Z,3.70
2018-06-19T16:56:27.325Z,3.85
2018-06-19T17:01:01.806Z,3.58
2018-06-19T17:05:36.333Z,5.55
2018-06-19T17:10:11.580Z,3.62
2018-06-19T17:14:46.075Z,3.52
2018-06-19T17:19:20.606Z,4.25
2018-06-19T17:23:54.806Z,3.70
2018-06-19T17:28:29.185Z,6.03
2018-06-19T17:33:03.478Z,3.92
2018-06-19T17:37:37.829Z,5.55
2018-06-19T17:42:12.275Z,5.17
2018-06-19T17:46:46.714Z,4.42
2018-06-19T17:51:21.234Z,4.45
2018-06-19T17:55:55.994Z,4.17
2018-06-19T18:00:30.400Z,4.40
2018-06-19T18:05:05.084Z,5.87
2018-06-19T18:09:40.006Z,9.65
2018-06-19T18:14:14.471Z,4.87
2018-06-19T18:18:48.963Z,6.83
2018-06-19T18:23:23.361Z,5.87
2018-06-19T18:27:57.863Z,5.37
2018-06-19T18:32:32.073Z,3.95
2018-06-19T18:37:06.558Z,4.17
2018-06-19T18:41:41.375Z,4.55
2018-06-19T18:46:15.800Z,4.40
2018-06-19T18:50:50.282Z,5.40
2018-06-19T18:55:24.934Z,6.15
2018-06-19T18:59:59.042Z,6.72
2018-06-19T19:04:33.539Z,5.65
2018-06-19T19:09:10.067Z,4.90
2018-06-19T19:13:45.301Z,10.13
2018-06-19T19:18:25.002Z,6.58
2018-06-19T19:22:59.357Z,6.20
2018-06-19T19:27:39.090Z,6.90
2018-06-19T19:32:13.550Z,5.60
2018-06-19T19:36:53.306Z,5.62
2018-06-19T19:41:27.683Z,6.35
2018-06-19T19:46:02.435Z,6.40
2018-06-19T19:50:37.038Z,6.22
2018-06-19T19:55:11.614Z,7.42
2018-06-19T19:59:45.845Z,6.10
2018-06-19T20:04:20.224Z,5.80
2018-06-19T20:08:54.682Z,6.28
2018-06-19T20:13:29.214Z,6.55
2018-06-19T20:18:03.798Z,10.55
2018-06-19T20:22:38.942Z,6.70
2018-06-19T20:27:13.431Z,6.40
2018-06-19T20:31:47.989Z,6.40
2018-06-19T20:36:22.479Z,6.87
2018-06-19T20:40:56.885Z,6.42
2018-06-19T20:45:31.366Z,6.47
2018-06-19T20:50:06.124Z,6.37
2018-06-19T20:54:40.670Z,6.35
2018-06-19T20:59:15.117Z,7.10
2018-06-19T21:03:49.429Z,7.50
2018-06-19T21:08:27.845Z,6.85
2018-06-19T21:13:02.330Z,7.67
2018-06-19T21:17:36.938Z,7.08
2018-06-19T21:22:11.273Z,6.60
2018-06-19T21:26:45.708Z,7.03
2018-06-19T21:31:20.167Z,6.90
2018-06-19T21:35:54.665Z,10.45
2018-06-19T21:40:29.265Z,7.80
2018-06-19T21:45:03.590Z,7.70
2018-06-19T21:49:37.783Z,8.08
2018-06-19T21:54:12.437Z,8.00
2018-06-19T21:58:46.978Z,8.03
2018-06-19T22:03:21.469Z,8.03
2018-06-19T22:07:55.661Z,8.05
2018-06-19T22:12:30.200Z,7.42
2018-06-19T22:17:04.716Z,8.63
2018-06-19T22:21:39.153Z,7.95
2018-06-19T22:26:13.717Z,7.87
2018-06-19T22:30:48.293Z,7.53
2018-06-19T22:35:22.707Z,7.08
2018-06-19T22:39:56.564Z,7.47
2018-06-19T22:44:30.788Z,7.25
2018-06-19T22:49:05.213Z,7.03
2018-06-19T22:53:39.668Z,7.33
2018-06-19T22:58:14.460Z,7.15
2018-06-19T23:02:48.885Z,7.62
2018-06-19T23:07:23.210Z,7.15
2018-06-19T23:11:57.697Z,7.08
2018-06-19T23:16:32.061Z,7.50
2018-06-19T23:21:06.694Z,7.65
2018-06-19T23:25:41.009Z,7.33
2018-06-19T23:30:16.713Z,9.23
2018-06-19T23:34:51.255Z,7.95
2018-06-19T23:39:25.793Z,6.83
2018-06-19T23:44:00.005Z,8.50
2018-06-19T23:48:34.653Z,7.60
2018-06-19T23:53:09.074Z,7.53
2018-06-19T23:57:43.569Z,8.10
